Aviation Digital Data Service (ADDS)

Output produced by METARs form (0429 UTC 26 May 2018)
found at http://www.aviationweather.gov/adds/metars/
 
OLBA 260400Z 21003KT 6000 SCT026 23/19 Q1010 NOSIG
TAF OLBA 260400Z 2606/2712 30010G20KT 7000 SCT026 SCT100 
     BECMG 2621/2624 VRB03KT 
     BECMG 2709/2712 33012KT